Time;durP1;ratioP1;P1;durP2;ratioP2;P2;SDS_P1;SDS_P2;PMS_P1;PMS_P2;Temp;Humidity;BMP_temperature;BMP_pressure;BME280_temperature;BME280_humidity;BME280_pressure;Samples;Min_cycle;Max_cycle;Signal;HPM_P1;HPM_P2
2022/02/15 00:00:51;;;;;;;25.08;16.07;;;;;;;1.89;72.59;98676.42;1820881;77;20961;-62
2022/02/15 00:03:17;;;;;;;25.43;16.42;;;;;;;1.95;72.55;98681.39;1818329;77;21621;-62
2022/02/15 00:05:44;;;;;;;28.38;16.27;;;;;;;1.98;72.57;98681.30;1806904;78;20981;-62
2022/02/15 00:08:11;;;;;;;24.10;15.90;;;;;;;2.04;72.60;98675.58;1817603;77;21045;-62
2022/02/15 00:10:39;;;;;;;21.85;15.40;;;;;;;2.07;72.61;98674.19;1806880;78;20993;-62
2022/02/15 00:13:06;;;;;;;23.80;15.50;;;;;;;2.11;72.62;98673.23;1825380;77;20997;-62
2022/02/15 00:15:33;;;;;;;26.07;15.70;;;;;;;2.14;72.64;98673.14;1795822;78;23260;-62
2022/02/15 00:18:00;;;;;;;26.12;16.60;;;;;;;2.17;72.67;98675.62;1820620;77;26027;-62
2022/02/15 00:20:27;;;;;;;21.17;15.23;;;;;;;2.18;72.67;98674.27;1812414;77;21036;-62
2022/02/15 00:22:53;;;;;;;25.87;16.13;;;;;;;2.19;72.69;98677.71;1821894;77;21480;-62
2022/02/15 00:25:21;;;;;;;22.00;15.00;;;;;;;2.21;72.70;98674.63;1797233;78;21025;-62
2022/02/15 00:27:48;;;;;;;24.65;16.37;;;;;;;2.21;72.70;98677.20;1806078;78;21143;-62
2022/02/15 00:30:15;;;;;;;23.10;16.37;;;;;;;2.22;72.72;98672.47;1822379;77;21051;-62
2022/02/15 00:32:42;;;;;;;26.68;17.25;;;;;;;2.23;72.77;98670.28;1824153;77;21009;-62
2022/02/15 00:35:09;;;;;;;22.67;16.17;;;;;;;2.25;72.78;98673.66;1816797;77;20894;-62
2022/02/15 00:37:36;;;;;;;24.30;17.23;;;;;;;2.25;72.78;98671.08;1809955;77;21084;-62
2022/02/15 00:40:04;;;;;;;25.33;16.90;;;;;;;2.26;72.83;98665.03;1796704;77;21426;-62
2022/02/15 00:42:31;;;;;;;23.32;15.05;;;;;;;2.25;72.84;98667.22;1812250;77;21118;-62
2022/02/15 00:44:58;;;;;;;22.90;16.27;;;;;;;2.25;72.86;98665.93;1819495;78;21042;-62
2022/02/15 00:47:25;;;;;;;27.25;17.95;;;;;;;2.25;72.88;98667.22;1819826;77;20973;-62
2022/02/15 00:49:52;;;;;;;24.75;16.27;;;;;;;2.26;72.90;98665.03;1803368;78;21002;-62
2022/02/15 00:52:19;;;;;;;27.65;16.07;;;;;;;2.28;72.92;98667.57;1811271;78;23137;-62
2022/02/15 00:54:46;;;;;;;25.72;16.12;;;;;;;2.27;72.91;98661.59;1813678;78;20989;-61
2022/02/15 00:57:13;;;;;;;24.30;16.45;;;;;;;2.27;72.98;98661.59;1813702;78;21032;-62
2022/02/15 00:59:39;;;;;;;24.15;16.10;;;;;;;2.27;73.02;98652.98;1801285;77;21044;-62
2022/02/15 01:02:06;;;;;;;23.05;15.48;;;;;;;2.27;73.05;98649.99;1800072;78;21087;-62
2022/02/15 01:04:33;;;;;;;26.27;16.62;;;;;;;2.27;73.05;98649.99;1813056;77;21146;-62
2022/02/15 01:06:59;;;;;;;21.12;15.98;;;;;;;2.28;73.11;98646.97;1807578;77;21020;-62
2022/02/15 01:09:26;;;;;;;20.48;14.83;;;;;;;2.31;73.07;98642.55;1810224;77;20938;-62
2022/02/15 01:11:52;;;;;;;23.12;16.80;;;;;;;2.31;73.04;98641.27;1815971;77;21519;-62
2022/02/15 01:14:20;;;;;;;26.50;16.00;;;;;;;2.31;73.03;98636.11;1807941;77;21077;-62
2022/02/15 01:16:47;;;;;;;24.25;17.32;;;;;;;2.29;73.05;98636.59;1819637;77;21103;-62
2022/02/15 01:19:13;;;;;;;20.45;16.25;;;;;;;2.28;73.06;98639.23;1825937;77;21026;-62
2022/02/15 01:21:40;;;;;;;31.52;17.67;;;;;;;2.24;73.09;98633.31;1810846;77;21605;-62
2022/02/15 01:24:07;;;;;;;31.57;16.87;;;;;;;2.22;73.11;98622.24;1825658;77;21048;-62
2022/02/15 01:26:34;;;;;;;24.10;16.70;;;;;;;2.21;73.15;98630.42;1811513;76;21139;-62
2022/02/15 01:29:01;;;;;;;21.85;15.70;;;;;;;2.19;73.18;98630.06;1802406;78;21142;-62
2022/02/15 01:31:28;;;;;;;25.57;16.82;;;;;;;2.19;73.22;98624.92;1812942;77;21124;-62
2022/02/15 01:33:55;;;;;;;28.62;17.25;;;;;;;2.18;73.19;98627.08;1815922;77;21577;-62
2022/02/15 01:36:21;;;;;;;22.98;16.75;;;;;;;2.17;73.20;98618.96;1808973;77;20914;-62
2022/02/15 01:38:48;;;;;;;25.12;16.07;;;;;;;2.16;73.24;98618.58;1816923;77;20993;-62
2022/02/15 01:41:15;;;;;;;27.00;17.60;;;;;;;2.15;73.23;98620.73;1824534;77;21248;-62
2022/02/15 01:43:44;;;;;;;29.63;18.57;;;;;;;2.12;73.24;98627.27;1816116;78;20938;-62
2022/02/15 01:46:11;;;;;;;24.47;15.90;;;;;;;2.09;73.25;98631.23;1808171;77;21076;-62
2022/02/15 01:48:39;;;;;;;22.73;15.72;;;;;;;2.09;73.26;98623.50;1823252;77;22270;-62
2022/02/15 01:51:06;;;;;;;28.23;18.62;;;;;;;2.07;73.27;98623.98;1825773;77;20969;-62
2022/02/15 01:53:34;;;;;;;24.03;16.13;;;;;;;2.05;73.35;98625.78;1821962;77;21292;-62
2022/02/15 01:56:00;;;;;;;26.68;17.25;;;;;;;2.05;73.42;98621.92;1827216;76;26932;-62
2022/02/15 01:58:27;;;;;;;24.90;17.32;;;;;;;2.04;73.46;98630.52;1810743;78;20941;-62
2022/02/15 02:00:54;;;;;;;26.25;18.23;;;;;;;2.04;73.49;98620.22;1806320;78;21056;-62
2022/02/15 02:03:20;;;;;;;22.37;15.85;;;;;;;2.03;73.55;98614.68;1814806;77;21065;-62
2022/02/15 02:05:50;;;;;;;29.03;18.73;;;;;;;2.06;73.72;98615.42;1818507;77;21043;-62
2022/02/15 02:08:23;;;;;;;22.90;16.77;;;;;;;2.06;73.72;98615.42;1835830;77;22565;-62
2022/02/15 02:10:50;;;;;;;25.02;17.15;;;;;;;2.07;73.55;98607.25;1822666;77;21044;-62
2022/02/15 02:13:17;;;;;;;;;;;;;;;2.09;73.55;98608.05;1820402;77;20986;-62
2022/02/15 02:15:45;;;;;;;24.23;17.17;;;;;;;2.10;73.59;98605.86;1802556;77;20322;-62
2022/02/15 02:18:12;;;;;;;26.07;17.85;;;;;;;2.09;73.62;98611.47;1816601;78;21121;-62
2022/02/15 02:20:40;;;;;;;24.72;16.20;;;;;;;2.10;73.65;98604.58;1822767;77;20983;-62
2022/02/15 02:23:10;;;;;;;;;;;;;;;2.10;73.69;98604.58;1820366;77;21392;-62
2022/02/15 02:25:36;;;;;;;26.25;17.42;;;;;;;2.10;73.72;98613.59;1813850;77;20119;-62
2022/02/15 02:28:04;;;;;;;26.62;18.05;;;;;;;2.09;73.70;98605.48;1814310;77;21048;-62
2022/02/15 02:30:30;;;;;;;27.85;17.32;;;;;;;2.09;73.75;98602.91;1810268;77;21078;-62
2022/02/15 02:32:57;;;;;;;28.87;17.75;;;;;;;2.08;73.74;98604.64;1806249;78;21436;-62
2022/02/15 02:35:24;;;;;;;28.92;18.42;;;;;;;2.12;73.80;98611.81;1812858;77;21549;-62
2022/02/15 02:37:51;;;;;;;28.50;18.37;;;;;;;2.12;73.78;98615.68;1812555;77;21034;-62
2022/02/15 02:40:18;;;;;;;27.42;17.57;;;;;;;2.10;73.78;98609.73;1833480;77;20946;-62
2022/02/15 02:42:44;;;;;;;26.97;17.35;;;;;;;2.10;73.78;98607.15;1809239;77;21970;-62
2022/02/15 02:45:17;;;;;;;24.47;16.93;;;;;;;2.07;73.75;98611.95;1799294;77;20969;-62
2022/02/15 02:47:48;;;;;;;28.75;18.20;;;;;;;1.97;73.71;98596.41;1822854;78;21089;-62
2022/02/15 02:50:17;;;;;;;26.75;18.05;;;;;;;2.07;73.85;98608.53;1816608;77;21291;-62
2022/02/15 02:52:44;;;;;;;33.38;20.05;;;;;;;2.06;73.90;98605.58;1819410;77;21036;-61
2022/02/15 02:55:11;;;;;;;32.23;18.85;;;;;;;2.04;73.88;98611.20;1814036;78;21587;-62
2022/02/15 02:57:39;;;;;;;24.77;17.77;;;;;;;2.00;73.88;98615.16;1816838;77;20997;-62
2022/02/15 03:00:14;;;;;;;27.32;17.77;;;;;;;1.99;73.91;98613.48;1802704;77;21043;-62
2022/02/15 03:02:40;;;;;;;28.30;18.42;;;;;;;2.00;73.98;98616.45;1808196;78;21549;-62
2022/02/15 03:05:08;;;;;;;28.40;17.87;;;;;;;2.03;74.03;98613.39;1822540;77;20950;-62
2022/02/15 03:07:34;;;;;;;;;;;;;;;2.01;74.00;98611.69;1825747;77;21945;-62
2022/02/15 03:10:01;;;;;;;26.90;18.33;;;;;;;2.03;74.06;98621.12;1823412;77;20092;-62
2022/02/15 03:12:28;;;;;;;29.05;18.25;;;;;;;2.02;74.08;98621.56;1809621;77;21004;-62
2022/02/15 03:14:55;;;;;;;26.00;18.40;;;;;;;2.03;74.14;98630.13;1823096;77;20985;-62
2022/02/15 03:17:22;;;;;;;25.33;16.93;;;;;;;2.02;74.18;98635.73;1821885;77;21487;-62
2022/02/15 03:19:51;;;;;;;27.13;18.48;;;;;;;1.99;74.18;98631.52;1821636;77;26648;-62
2022/02/15 03:22:18;;;;;;;27.87;18.30;;;;;;;2.03;74.15;98633.99;1824973;77;21610;-62
2022/02/15 03:24:46;;;;;;;27.10;17.67;;;;;;;2.05;74.19;98638.66;1825058;77;21024;-62
2022/02/15 03:27:13;;;;;;;28.77;18.37;;;;;;;2.10;74.09;98636.77;1809917;77;21483;-62
2022/02/15 03:29:39;;;;;;;31.35;18.30;;;;;;;2.11;74.10;98633.32;1822978;78;21645;-62
2022/02/15 03:32:07;;;;;;;33.05;18.75;;;;;;;2.07;74.20;98629.97;1824724;77;21490;-62
2022/02/15 03:34:34;;;;;;;25.17;18.10;;;;;;;2.09;74.23;98628.66;1804692;78;21443;-62
2022/02/15 03:37:00;;;;;;;29.93;17.90;;;;;;;2.09;74.29;98636.37;1820034;78;21020;-62
2022/02/15 03:39:27;;;;;;;29.13;19.17;;;;;;;2.07;74.44;98638.14;1815823;76;20941;-62
2022/02/15 03:44:39;;;;;;;33.70;19.48;;;;;;;1.96;74.64;98633.31;1813963;78;21614;-62
2022/02/15 03:47:06;;;;;;;29.05;18.40;;;;;;;1.89;74.91;98632.66;1807649;78;21561;-62
2022/02/15 03:49:32;;;;;;;30.50;18.80;;;;;;;1.87;74.85;98627.99;1825234;77;21014;-62
2022/02/15 03:51:59;;;;;;;26.42;18.20;;;;;;;1.85;74.93;98625.94;1813129;77;21585;-62
2022/02/15 03:54:26;;;;;;;25.97;17.90;;;;;;;1.82;74.98;98613.16;1817886;78;21026;-62
2022/02/15 03:56:52;;;;;;;25.85;18.87;;;;;;;1.77;75.05;98615.02;1824115;76;21861;-62
2022/02/15 03:59:19;;;;;;;29.25;19.95;;;;;;;1.75;75.24;98622.77;1819891;77;22186;-62
2022/02/15 04:01:47;;;;;;;32.58;20.17;;;;;;;1.74;75.22;98626.69;1828297;76;20952;-62
2022/02/15 04:04:13;;;;;;;28.65;19.67;;;;;;;1.71;75.32;98630.61;1829083;77;21004;-62
2022/02/15 04:06:40;;;;;;;30.00;20.52;;;;;;;1.69;75.41;98623.41;1827464;77;20973;-62
2022/02/15 04:09:09;;;;;;;25.62;18.67;;;;;;;1.69;75.45;98625.97;1802027;77;21983;-62
2022/02/15 04:11:36;;;;;;;26.70;19.65;;;;;;;1.70;75.54;98625.08;1809488;78;21708;-61
2022/02/15 04:14:03;;;;;;;26.82;19.52;;;;;;;1.68;75.55;98620.41;1823039;76;20887;-62
2022/02/15 04:16:30;;;;;;;31.37;20.33;;;;;;;1.68;75.62;98621.70;1817765;78;21048;-62
2022/02/15 04:18:56;;;;;;;30.57;21.35;;;;;;;1.69;75.71;98620.38;1825476;77;21524;-62
2022/02/15 04:21:26;;;;;;;30.85;20.57;;;;;;;1.70;75.77;98613.50;1821085;77;21495;-62
2022/02/15 04:23:53;;;;;;;33.67;21.23;;;;;;;1.73;75.81;98613.41;1818872;77;20977;-62
2022/02/15 04:26:20;;;;;;;31.23;21.00;;;;;;;1.75;75.87;98616.78;1805397;78;21095;-62
2022/02/15 04:28:46;;;;;;;34.63;21.05;;;;;;;1.79;75.98;98620.94;1807633;77;20949;-62
2022/02/15 04:31:13;;;;;;;35.13;21.43;;;;;;;1.81;75.89;98614.02;1816378;77;21590;-62
2022/02/15 04:33:40;;;;;;;31.90;20.30;;;;;;;1.75;75.84;98611.64;1815170;77;21457;-62
2022/02/15 04:36:07;;;;;;;38.13;21.73;;;;;;;1.71;75.91;98599.73;1825326;76;21565;-62
2022/02/15 04:38:34;;;;;;;;;;;;;;;1.66;75.91;98600.33;1812622;78;22379;-62
2022/02/15 04:41:01;;;;;;;33.70;21.02;;;;;;;1.62;76.00;98610.30;1821681;77;20150;-62
2022/02/15 04:43:28;;;;;;;39.58;22.45;;;;;;;1.54;76.02;98612.66;1819434;77;22673;-62
2022/02/15 04:45:54;;;;;;;32.65;20.00;;;;;;;1.49;76.01;98610.66;1830820;77;21068;-62
2022/02/15 04:48:21;;;;;;;28.95;20.15;;;;;;;1.45;76.09;98614.19;1801976;78;20977;-63
2022/02/15 04:50:48;;;;;;;28.83;20.23;;;;;;;1.40;76.14;98610.06;1804836;77;20966;-62
2022/02/15 04:53:16;;;;;;;34.40;20.88;;;;;;;1.39;76.20;98614.37;1813794;78;21068;-62
2022/02/15 04:55:43;;;;;;;34.27;21.80;;;;;;;1.39;76.30;98619.51;1829201;77;21036;-62
2022/02/15 04:58:10;;;;;;;32.73;20.80;;;;;;;1.42;76.43;98632.28;1809422;77;21466;-62
2022/02/15 05:00:36;;;;;;;30.62;21.02;;;;;;;1.43;76.34;98626.27;1827132;77;21458;-62
2022/02/15 05:03:03;;;;;;;30.13;21.53;;;;;;;1.42;76.32;98619.42;1805129;78;20956;-62
2022/02/15 05:05:30;;;;;;;29.55;20.37;;;;;;;1.44;76.48;98617.66;1818920;78;21215;-62
2022/02/15 05:07:57;;;;;;;36.08;22.98;;;;;;;1.42;76.45;98609.13;1824042;77;20958;-62
2022/02/15 05:10:23;;;;;;;31.20;21.35;;;;;;;1.41;76.51;98604.88;1811025;78;22305;-62
2022/02/15 05:12:50;;;;;;;37.65;22.05;;;;;;;1.41;76.56;98612.60;1803077;77;21083;-62
2022/02/15 05:15:17;;;;;;;32.30;22.22;;;;;;;1.39;76.54;98619.51;1810743;77;21049;-62
2022/02/15 05:17:46;;;;;;;35.55;21.40;;;;;;;1.38;76.59;98615.27;1831354;77;22239;-62
2022/02/15 05:20:18;;;;;;;34.25;21.97;;;;;;;1.37;76.62;98614.84;1818257;76;21001;-62
2022/02/15 05:22:46;;;;;;;30.97;21.37;;;;;;;1.38;76.63;98619.56;1810155;77;21090;-62
2022/02/15 05:25:14;;;;;;;33.55;22.17;;;;;;;1.35;76.61;98617.92;1802918;77;24439;-62
2022/02/15 05:27:44;;;;;;;34.05;22.15;;;;;;;1.36;76.70;98618.31;1811095;77;21040;-62
2022/02/15 05:30:12;;;;;;;30.65;21.60;;;;;;;1.35;76.70;98611.49;1809656;78;20942;-62
2022/02/15 05:32:39;;;;;;;34.85;21.40;;;;;;;1.36;76.81;98614.45;1821571;77;21016;-62
2022/02/15 05:35:08;;;;;;;33.00;21.97;;;;;;;1.37;76.87;98617.41;1830842;76;22303;-62
2022/02/15 05:37:35;;;;;;;38.23;22.58;;;;;;;1.40;76.95;98616.07;1804113;76;21490;-62
2022/02/15 05:40:04;;;;;;;33.70;22.00;;;;;;;1.46;76.96;98622.77;1814642;78;20953;-62
2022/02/15 05:42:31;;;;;;;32.05;21.33;;;;;;;1.48;76.97;98623.10;1826186;77;21575;-62
2022/02/15 05:44:58;;;;;;;33.53;21.57;;;;;;;1.50;76.99;98622.63;1815197;77;20981;-62
2022/02/15 05:47:24;;;;;;;35.13;23.30;;;;;;;1.54;77.09;98624.24;1824109;77;21619;-62
2022/02/15 05:52:37;;;;;;;35.08;22.07;;;;;;;1.64;77.17;98621.40;1810586;77;20958;-62
2022/02/15 05:55:05;;;;;;;37.00;22.80;;;;;;;1.62;77.02;98616.73;1824223;77;21040;-63
2022/02/15 05:57:31;;;;;;;;;;;;;;;1.61;77.07;98616.34;1831151;77;21261;-62
2022/02/15 05:59:58;;;;;;;37.13;22.77;;;;;;;1.61;77.12;98617.62;1815053;76;21839;-62
2022/02/15 06:02:24;;;;;;;30.17;21.40;;;;;;;1.53;77.07;98614.82;1826358;77;21534;-62
2022/02/15 06:04:52;;;;;;;35.85;22.20;;;;;;;1.48;77.08;98621.81;1817214;77;21056;-63
2022/02/15 06:07:18;;;;;;;;;;;;;;;1.47;77.28;98620.14;1825368;77;20950;-62
2022/02/15 06:09:45;;;;;;;39.08;21.45;;;;;;;1.49;77.34;98631.23;1820625;78;20182;-62
2022/02/15 06:12:12;;;;;;;32.38;21.25;;;;;;;1.49;77.30;98640.25;1823917;77;21439;-62
2022/02/15 06:14:38;;;;;;;31.77;21.90;;;;;;;1.50;77.34;98640.63;1826019;77;21064;-62
2022/02/15 06:17:05;;;;;;;34.98;22.02;;;;;;;1.54;77.46;98633.66;1818931;77;21028;-62
2022/02/15 06:19:32;;;;;;;31.30;21.47;;;;;;;1.54;77.41;98633.25;1821102;78;21559;-62
2022/02/15 06:21:58;;;;;;;33.15;21.68;;;;;;;1.49;77.49;98626.09;1804222;78;21671;-62
2022/02/15 06:24:25;;;;;;;31.02;21.62;;;;;;;1.60;77.40;98648.08;1818450;78;21535;-62
2022/02/15 06:26:51;;;;;;;32.65;22.17;;;;;;;1.63;77.40;98641.59;1812720;78;21019;-62
2022/02/15 06:29:18;;;;;;;33.50;23.12;;;;;;;1.63;77.36;98646.30;1805533;78;21021;-62
2022/02/15 06:31:45;;;;;;;36.15;23.52;;;;;;;1.59;77.31;98652.84;1819975;77;20993;-62
2022/02/15 06:34:14;;;;;;;35.83;22.85;;;;;;;1.58;77.42;98649.88;1804742;78;21726;-62
2022/02/15 06:36:41;;;;;;;33.42;23.05;;;;;;;1.56;77.41;98655.89;1812641;77;21534;-62
2022/02/15 06:39:09;;;;;;;32.48;24.02;;;;;;;1.52;77.41;98663.76;1807220;77;20993;-63
2022/02/15 06:41:39;;;;;;;;;;;;;;;1.51;77.52;98668.06;1825641;77;21028;-62
2022/02/15 06:44:06;;;;;;;35.35;21.68;;;;;;;1.49;77.58;98671.11;1800143;78;20456;-62
2022/02/15 06:46:33;;;;;;;37.30;20.30;;;;;;;1.44;77.57;98681.13;1814545;77;20973;-62
2022/02/15 06:48:59;;;;;;;35.43;21.52;;;;;;;1.40;77.59;98676.52;1814443;77;21115;-62
2022/02/15 06:51:27;;;;;;;36.57;21.30;;;;;;;1.37;77.63;98672.71;1814035;77;20969;-62
2022/02/15 06:53:53;;;;;;;33.70;22.25;;;;;;;1.26;77.69;98649.88;1812405;77;21375;-62
2022/02/15 06:56:20;;;;;;;29.82;21.55;;;;;;;1.44;77.82;98680.68;1803348;78;20895;-62
2022/02/15 06:58:47;;;;;;;33.10;22.37;;;;;;;1.53;77.89;98685.56;1797805;78;20894;-62
2022/02/15 07:01:14;;;;;;;30.10;20.30;;;;;;;1.62;77.97;98678.48;1790777;78;21547;-62
2022/02/15 07:03:41;;;;;;;32.83;21.27;;;;;;;1.72;78.04;98688.93;1797315;78;21568;-61
2022/02/15 07:06:08;;;;;;;32.00;21.35;;;;;;;1.80;77.91;98685.70;1814473;78;21468;-62
2022/02/15 07:08:35;;;;;;;31.93;21.52;;;;;;;1.86;77.84;98685.52;1807489;78;21540;-62
2022/02/15 07:11:02;;;;;;;31.45;22.13;;;;;;;1.90;77.78;98680.67;1808564;77;26739;-64
2022/02/15 07:13:29;;;;;;;35.13;23.73;;;;;;;1.97;77.89;98691.20;1819275;77;21094;-62
2022/02/15 07:15:55;;;;;;;36.28;24.43;;;;;;;2.00;77.76;98694.98;1825353;77;21161;-62
2022/02/15 07:18:23;;;;;;;39.57;25.33;;;;;;;1.98;77.71;98688.18;1831609;77;20933;-61
2022/02/15 07:20:50;;;;;;;36.50;24.57;;;;;;;1.96;77.81;98688.25;1828445;77;20894;-61
2022/02/15 07:23:17;;;;;;;34.60;24.13;;;;;;;1.98;77.91;98689.02;1831469;77;20962;-62
2022/02/15 07:25:43;;;;;;;39.80;25.02;;;;;;;2.00;77.85;98692.41;1814410;77;21655;-62
2022/02/15 07:28:10;;;;;;;35.85;24.40;;;;;;;2.03;77.95;98687.61;1825473;77;21028;-62
2022/02/15 07:30:37;;;;;;;36.08;23.55;;;;;;;2.10;78.00;98697.27;1814360;77;20965;-62
2022/02/15 07:33:04;;;;;;;32.20;23.00;;;;;;;2.17;78.07;98698.80;1832242;77;21012;-62
2022/02/15 07:35:31;;;;;;;33.83;22.45;;;;;;;2.30;78.24;98703.98;1831738;78;21636;-62
2022/02/15 07:37:58;;;;;;;34.03;21.70;;;;;;;2.48;78.25;98701.73;1827188;77;21137;-62
2022/02/15 07:40:25;;;;;;;38.15;22.67;;;;;;;2.60;78.20;98706.50;1838346;76;21036;-62
2022/02/15 07:42:52;;;;;;;34.03;22.60;;;;;;;2.75;78.28;98702.17;1838358;77;20954;-62
2022/02/15 07:45:20;;;;;;;29.37;20.70;;;;;;;2.98;78.45;98705.73;1832089;76;21504;-62
2022/02/15 07:47:50;;;;;;;31.50;21.07;;;;;;;3.11;78.17;98702.70;1831322;77;21511;-62
2022/02/15 07:50:20;;;;;;;27.95;19.92;;;;;;;3.22;78.18;98704.94;1811315;78;22624;-62
2022/02/15 07:52:57;;;;;;;28.07;20.77;;;;;;;3.31;78.17;98704.61;1831635;77;21527;-62
2022/02/15 07:55:24;;;;;;;31.12;20.68;;;;;;;3.41;78.09;98699.13;1827205;77;20973;-62
2022/02/15 07:57:51;;;;;;;30.40;20.88;;;;;;;3.47;78.01;98705.36;1822523;77;21109;-62
2022/02/15 08:00:20;;;;;;;35.15;21.20;;;;;;;3.52;77.99;98702.18;1829538;77;20977;-62
2022/02/15 08:02:52;;;;;;;31.70;21.07;;;;;;;3.60;78.06;98695.02;1827824;78;21522;-62
2022/02/15 08:05:22;;;;;;;27.93;19.73;;;;;;;3.73;78.08;98698.85;1829357;77;21045;-62
2022/02/15 08:07:52;;;;;;;29.57;20.77;;;;;;;3.87;78.20;98700.10;1827858;77;21017;-62
2022/02/15 08:10:21;;;;;;;33.42;22.52;;;;;;;4.03;78.25;98704.66;1822529;77;21610;-62
2022/02/15 08:13:03;;;;;;;31.85;22.35;;;;;;;4.14;78.10;98702.09;1818204;77;21311;-63
2022/02/15 08:15:30;;;;;;;33.63;23.38;;;;;;;4.17;77.89;98711.89;1808801;78;21127;-63
2022/02/15 08:18:00;;;;;;;36.83;24.30;;;;;;;4.22;77.87;98712.53;1808455;77;20985;-63
2022/02/15 08:20:27;;;;;;;38.45;23.57;;;;;;;4.22;77.91;98715.12;1818399;78;20934;-61
2022/02/15 08:22:54;;;;;;;43.75;26.50;;;;;;;4.23;78.01;98716.82;1823206;78;21574;-62
2022/02/15 08:25:21;;;;;;;38.78;24.70;;;;;;;4.24;77.99;98712.03;1818779;77;20961;-61
2022/02/15 08:27:48;;;;;;;59.93;28.02;;;;;;;4.17;77.78;98718.77;1813270;77;21593;-62
2022/02/15 08:30:17;;;;;;;43.77;24.97;;;;;;;4.09;77.81;98721.66;1810848;77;20940;-62
2022/02/15 08:32:44;;;;;;;47.95;23.50;;;;;;;4.03;77.93;98715.41;1806916;76;21261;-62
2022/02/15 08:35:11;;;;;;;36.98;22.20;;;;;;;4.04;77.97;98710.66;1827552;76;20922;-62
2022/02/15 08:37:37;;;;;;;31.17;20.15;;;;;;;4.05;78.04;98723.95;1830821;77;21035;-61
2022/02/15 08:40:07;;;;;;;33.97;21.80;;;;;;;4.08;78.18;98717.38;1834075;77;22238;-61
2022/02/15 08:42:34;;;;;;;33.78;19.85;;;;;;;4.14;78.27;98718.44;1828934;78;21572;-61
2022/02/15 08:45:01;;;;;;;32.13;20.32;;;;;;;4.24;78.29;98723.66;1830517;78;24855;-62
2022/02/15 08:47:27;;;;;;;34.53;21.50;;;;;;;4.30;78.12;98731.63;1827386;77;20926;-62
2022/02/15 08:49:54;;;;;;;32.73;20.92;;;;;;;4.31;78.03;98728.59;1814718;77;20985;-61
2022/02/15 08:52:26;;;;;;;29.80;20.75;;;;;;;4.36;78.17;98727.52;1827795;76;20998;-62
2022/02/15 08:54:55;;;;;;;30.68;20.15;;;;;;;4.41;78.04;98728.66;1829431;77;20950;-62
2022/02/15 08:57:23;;;;;;;34.67;19.67;;;;;;;4.47;78.18;98728.41;1824267;78;20923;-62
2022/02/15 08:59:53;;;;;;;31.17;20.48;;;;;;;4.55;78.08;98726.38;1820928;77;22161;-62
2022/02/15 09:02:24;;;;;;;32.00;20.40;;;;;;;4.67;78.28;98722.47;1823790;78;20996;-62
2022/02/15 09:04:52;;;;;;;28.42;20.37;;;;;;;4.82;78.25;98724.92;1825651;78;21112;-62
2022/02/15 09:07:19;;;;;;;30.65;20.65;;;;;;;4.93;78.28;98727.46;1825558;77;25001;-62
2022/02/15 09:09:46;;;;;;;32.90;21.17;;;;;;;5.07;78.37;98733.38;1805633;78;21597;-62
2022/02/15 09:12:13;;;;;;;30.85;20.20;;;;;;;5.30;78.44;98727.70;1817111;78;21538;-62
2022/02/15 09:14:39;;;;;;;26.87;19.92;;;;;;;5.44;78.28;98737.03;1819819;78;20929;-62
2022/02/15 09:17:09;;;;;;;29.67;18.42;;;;;;;5.48;78.02;98738.56;1822057;76;22269;-61
2022/02/15 13:07:31;;;;;;;6.47;4.60;;;;;;;7.88;74.46;98787.13;1861451;76;22017;-61
2022/02/15 13:10:04;;;;;;;6.92;4.45;;;;;;;7.72;74.38;98787.89;1824652;77;21560;-61
2022/02/15 13:12:33;;;;;;;6.80;3.52;;;;;;;7.66;74.44;98788.20;1828734;77;21057;-62
2022/02/15 13:15:01;;;;;;;9.58;3.62;;;;;;;7.65;74.31;98791.73;1823208;77;20987;-63
2022/02/15 13:17:51;;;;;;;6.65;3.75;;;;;;;7.68;74.36;98790.28;1827333;77;21055;-62
2022/02/15 13:20:22;;;;;;;4.80;2.60;;;;;;;7.73;74.29;98793.92;1819943;77;20979;-61
2022/02/15 13:23:05;;;;;;;5.97;2.50;;;;;;;7.75;74.07;98803.33;1826682;77;21062;-61
2022/02/15 13:25:48;;;;;;;3.47;2.50;;;;;;;7.74;74.00;98806.85;1828752;77;21250;-62
2022/02/15 13:28:18;;;;;;;7.80;3.30;;;;;;;7.71;73.93;98809.61;1824123;77;20941;-62
2022/02/15 13:30:48;;;;;;;4.78;2.75;;;;;;;7.65;74.00;98807.33;1822373;77;21009;-61
2022/02/15 13:33:16;;;;;;;9.20;3.45;;;;;;;7.59;73.98;98816.73;1821998;77;21067;-62
2022/02/15 13:35:47;;;;;;;4.65;3.05;;;;;;;7.55;73.96;98822.51;1825845;77;21011;-61
2022/02/15 13:38:16;;;;;;;3.25;2.40;;;;;;;7.51;73.94;98820.98;1822402;77;21854;-63
2022/02/15 13:40:42;;;;;;;4.58;2.42;;;;;;;7.47;73.98;98823.34;1828135;77;20941;-62
2022/02/15 13:43:21;;;;;;;3.92;2.47;;;;;;;7.44;73.96;98821.36;1828019;77;20987;-61
2022/02/15 13:45:47;;;;;;;3.72;2.67;;;;;;;7.36;73.77;98819.95;1823884;77;21024;-61
2022/02/15 13:48:14;;;;;;;4.67;2.52;;;;;;;7.30;73.83;98822.86;1828394;77;20959;-61
2022/02/15 13:50:41;;;;;;;6.22;2.90;;;;;;;7.29;73.92;98822.48;1825465;77;21667;-62
2022/02/15 13:53:08;;;;;;;6.45;2.50;;;;;;;7.25;73.78;98824.83;1828698;77;20924;-61
2022/02/15 13:55:35;;;;;;;4.70;2.60;;;;;;;7.24;73.86;98828.35;1828061;77;21026;-62
2022/02/15 13:58:08;;;;;;;6.12;2.52;;;;;;;7.25;73.91;98831.33;1827377;77;21637;-62
2022/02/15 14:00:43;;;;;;;5.53;2.30;;;;;;;7.28;73.97;98835.09;1795272;77;21486;-61
2022/02/15 14:03:11;;;;;;;6.80;2.85;;;;;;;7.32;73.98;98838.38;1826568;77;21141;-62
2022/02/15 14:05:38;;;;;;;8.00;3.00;;;;;;;7.35;73.93;98839.06;1825765;77;20952;-62
2022/02/15 14:08:10;;;;;;;7.47;2.70;;;;;;;7.33;73.81;98840.89;1800144;78;20940;-62
2022/02/15 14:10:41;;;;;;;6.30;3.00;;;;;;;7.30;73.78;98843.63;1819690;77;21490;-62
2022/02/15 14:13:11;;;;;;;4.85;2.40;;;;;;;7.26;73.79;98846.01;1822761;77;21012;-62
2022/02/15 14:16:10;;;;;;;5.97;2.62;;;;;;;7.22;73.72;98848.34;1831537;77;21023;-63
2022/02/15 14:18:39;;;;;;;3.40;2.10;;;;;;;7.16;73.74;98840.86;1736389;81;21020;-62
2022/02/15 14:21:30;;;;;;;;;;;;;;;7.09;73.75;98849.41;1736540;82;21051;-62
2022/02/15 14:24:03;;;;;;;3.50;2.90;;;;;;;7.04;73.73;98855.26;1730899;81;20096;-64
2022/02/15 14:26:31;;;;;;;5.60;3.20;;;;;;;6.94;73.74;98856.13;1731796;81;21724;-62
2022/02/15 14:29:02;;;;;;;4.92;3.12;;;;;;;6.86;73.74;98854.37;1722322;81;21041;-62
2022/02/15 14:31:29;;;;;;;11.93;5.20;;;;;;;6.80;73.74;98854.62;1722033;81;21033;-62
2022/02/15 14:33:56;;;;;;;13.13;6.62;;;;;;;6.76;73.79;98862.64;1725219;82;21501;-62
2022/02/15 14:36:26;;;;;;;25.17;10.17;;;;;;;6.72;73.79;98867.09;1673222;84;21907;-62
2022/02/15 14:38:54;;;;;;;20.52;8.43;;;;;;;6.69;73.77;98873.73;1694677;84;21025;-62
2022/02/15 14:41:22;;;;;;;15.60;6.78;;;;;;;6.65;73.75;98870.90;1698808;83;21213;-62
2022/02/15 14:43:52;;;;;;;11.05;5.35;;;;;;;6.60;73.78;98880.63;1698598;83;21020;-62
2022/02/15 14:46:20;;;;;;;10.28;3.77;;;;;;;6.55;73.80;98885.17;1699427;83;20977;-62
2022/02/15 14:48:47;;;;;;;4.60;2.70;;;;;;;6.48;73.70;98898.42;1699982;83;21064;-62
2022/02/15 14:51:14;;;;;;;;;;;;;;;6.40;73.75;98897.91;1702321;84;21594;-62
2022/02/15 14:53:40;;;;;;;6.37;2.40;;;;;;;6.32;73.71;98894.80;1695934;83;21610;-62
2022/02/15 14:56:07;;;;;;;4.10;2.60;;;;;;;6.23;73.74;98892.61;1675584;84;21716;-63
2022/02/15 14:58:37;;;;;;;4.17;3.00;;;;;;;6.18;73.75;98901.03;1698834;83;21049;-63
2022/02/15 15:01:06;;;;;;;4.00;2.47;;;;;;;6.13;73.80;98911.58;1692028;84;21015;-63
2022/02/15 15:03:33;;;;;;;9.88;3.47;;;;;;;6.10;73.81;98912.17;1686859;83;20965;-63
2022/02/15 15:06:00;;;;;;;5.40;3.05;;;;;;;6.08;73.84;98908.80;1692325;83;21133;-63
2022/02/15 15:08:49;;;;;;;5.22;2.58;;;;;;;6.04;73.84;98911.52;1688338;83;26475;-62
2022/02/15 15:11:16;;;;;;;3.67;2.52;;;;;;;6.01;73.84;98918.13;1722846;81;20952;-60
2022/02/15 15:13:42;;;;;;;7.45;2.80;;;;;;;5.95;73.87;98909.31;1724722;83;21085;-62
2022/02/15 15:16:09;;;;;;;5.12;2.40;;;;;;;5.92;73.90;98910.71;1725971;82;21058;-63
2022/02/15 15:18:36;;;;;;;3.22;2.40;;;;;;;5.89;73.89;98913.89;1726690;81;21487;-61
2022/02/15 15:21:02;;;;;;;4.80;2.55;;;;;;;5.87;73.94;98918.28;1725762;82;20948;-61
2022/02/15 15:23:29;;;;;;;3.97;2.57;;;;;;;5.86;73.97;98916.15;1715120;81;20993;-62
2022/02/15 15:25:56;;;;;;;4.40;2.92;;;;;;;5.85;73.96;98913.15;1722129;81;20999;-61
2022/02/15 15:28:23;;;;;;;5.87;3.22;;;;;;;5.81;73.95;98918.08;1692819;84;21011;-61